Página principal
METAR-TAF:

METAR-TAF

Aeroportos :

Aeroporto Internacional de Port Moresby

Port Moresby, Papua-Nova Guiné

latitude: 09-26S, longitude: 147-13E, altura: 38 m

Observação actual do tempo

O boletim foi feito há 1 hora e 11 minutos, às 23:00 UTC
Vento 4 kt de sul
Temperatura 31°C
Humidade 52%
Pressão 1010 hPa
Visibilidade 10 km ou mais
Poucas nuvensa uma altura de 5000 ft
bruma

METAR: AYPY 122300Z 17004KT 9999 HZ FEW050 31/20 Q1010

Hora: 10:11 (00:11 UTC)

Previsão

O boletim foi feito há 22 horas e 10 minutos, às 02:01 UTC
Previsão válida de 12 às 06 UTC a 13 às 06 UTC
Vento 8 kt de sul
Visibilidade 10 km ou mais
Nuvens dispersasa uma altura de 2000 ft
Nuvens dispersasa uma altura de 14000 ft
A partir de 12 às 1000 UTC
Vento 3 kt com direcção variável
Visibilidade 10 km ou mais
Nuvens dispersasa uma altura de 4000 ft
Nuvens fragmentadasa uma altura de 14000 ft

TAF: AYPY 120201Z 1206/1306 17008KT 9999 SCT020 SCT140 FM121000 VRB03KT 9999 SCT040 BKN140

Observações e previsões do tempo de mais de 4000 aeroportos (mensagens METAR e TAF).

As estações disponíveis são os pontos amarelos e vermelhos sobre o mapa.

Mova o rato sobre o mapa para ver o nome da estação.

Depois clique no ponto para visualizar as observações e previsões meteorológicas.

Para alterar o mapa : clique nos botões verdes com uma cruz preta para aumentar o zoom; no botão verde com uma pitada de zoom; ou nas setas verdes para mapas adjacentes.


METAR-TAF: